createdAt,value
2018-09-06T00:01:26.173Z,13.33
2018-09-06T00:03:54.408Z,12.47
2018-09-06T00:06:22.635Z,17.43
2018-09-06T00:08:50.882Z,18.23
2018-09-06T00:11:19.093Z,20.60
2018-09-06T00:13:47.332Z,13.60
2018-09-06T00:16:15.561Z,14.70
2018-09-06T00:18:43.808Z,14.47
2018-09-06T00:21:12.040Z,13.33
2018-09-06T00:23:40.313Z,14.07
2018-09-06T00:26:08.546Z,19.73
2018-09-06T00:28:36.777Z,18.07
2018-09-06T00:31:05.061Z,13.90
2018-09-06T00:33:33.282Z,11.93
2018-09-06T00:36:01.544Z,15.57
2018-09-06T00:38:29.793Z,16.80
2018-09-06T00:40:58.065Z,12.23
2018-09-06T00:43:26.293Z,22.10
2018-09-06T00:45:54.553Z,13.83
2018-09-06T00:48:22.796Z,16.10
2018-09-06T00:50:51.098Z,18.03
2018-09-06T00:53:19.325Z,18.07
2018-09-06T00:55:47.584Z,16.97
2018-09-06T00:58:15.802Z,18.97
2018-09-06T01:00:44.053Z,14.37
2018-09-06T01:03:12.277Z,19.47
2018-09-06T01:05:40.555Z,19.77
2018-09-06T01:08:08.805Z,15.83
2018-09-06T01:10:37.064Z,14.77
2018-09-06T01:13:05.312Z,16.63
2018-09-06T01:15:33.531Z,17.13
2018-09-06T01:18:02.097Z,13.93
2018-09-06T01:20:30.348Z,14.07
2018-09-06T01:22:58.617Z,14.63
2018-09-06T01:25:31.060Z,16.70
2018-09-06T01:27:59.307Z,14.37
2018-09-06T01:30:27.509Z,18.20
2018-09-06T01:32:55.788Z,14.90
2018-09-06T01:35:24.009Z,14.83
2018-09-06T01:37:52.279Z,17.47
2018-09-06T01:40:20.512Z,13.23
2018-09-06T01:42:48.768Z,13.70
2018-09-06T01:45:16.968Z,15.03
2018-09-06T01:47:45.244Z,16.77
2018-09-06T01:50:13.491Z,18.23
2018-09-06T01:52:41.764Z,15.20
2018-09-06T01:55:10.149Z,13.80
2018-09-06T01:57:38.385Z,17.47
2018-09-06T02:00:06.625Z,15.90
2018-09-06T02:02:34.880Z,16.30
2018-09-06T02:05:03.122Z,13.97
2018-09-06T02:07:31.376Z,13.33
2018-09-06T02:09:59.675Z,13.70
2018-09-06T02:12:27.944Z,17.57
2018-09-06T02:14:56.164Z,16.73
2018-09-06T02:17:24.377Z,15.60
2018-09-06T02:19:52.625Z,16.33
2018-09-06T02:22:20.841Z,14.27
2018-09-06T02:24:49.081Z,18.47
2018-09-06T02:27:17.295Z,16.23
2018-09-06T02:29:45.570Z,14.57
2018-09-06T02:32:13.802Z,17.13
2018-09-06T02:34:42.044Z,15.37
2018-09-06T02:37:10.268Z,15.70
2018-09-06T02:39:38.520Z,15.30
2018-09-06T02:42:06.762Z,15.40
2018-09-06T02:44:35.021Z,16.57
2018-09-06T02:47:03.268Z,15.67
2018-09-06T02:49:36.961Z,15.27
2018-09-06T02:52:05.212Z,21.90
2018-09-06T02:54:33.501Z,19.20
2018-09-06T02:57:01.732Z,15.90
2018-09-06T02:59:29.978Z,15.83
2018-09-06T03:01:58.218Z,15.77
2018-09-06T03:04:26.478Z,15.50
2018-09-06T03:06:54.764Z,17.53
2018-09-06T03:09:24.356Z,17.80
2018-09-06T03:11:55.996Z,15.57
2018-09-06T03:14:24.293Z,16.37
2018-09-06T03:16:52.500Z,17.07
2018-09-06T03:19:20.795Z,16.33
2018-09-06T03:21:48.997Z,16.33
2018-09-06T03:24:17.250Z,18.00
2018-09-06T03:26:45.483Z,16.80
2018-09-06T03:29:13.740Z,19.70
2018-09-06T03:31:42.000Z,21.30
2018-09-06T03:34:10.221Z,18.17
2018-09-06T03:36:38.470Z,16.17
2018-09-06T03:39:07.900Z,16.50
2018-09-06T03:41:36.168Z,16.97
2018-09-06T03:44:04.660Z,19.33
2018-09-06T03:46:32.904Z,15.70
2018-09-06T03:49:01.271Z,20.43
2018-09-06T03:51:29.545Z,15.93
2018-09-06T03:53:57.773Z,20.23
2018-09-06T03:56:26.012Z,16.73
2018-09-06T03:58:54.237Z,16.47
2018-09-06T04:01:22.481Z,15.40
2018-09-06T04:03:50.700Z,19.50
2018-09-06T04:06:19.002Z,16.57
2018-09-06T04:08:47.208Z,17.30
2018-09-06T04:11:15.442Z,16.43
2018-09-06T04:13:43.690Z,19.13
2018-09-06T04:16:11.989Z,19.20
2018-09-06T04:18:40.789Z,22.13
2018-09-06T04:21:09.126Z,18.70
2018-09-06T04:23:37.408Z,16.57
2018-09-06T04:26:05.865Z,25.33
2018-09-06T04:28:34.108Z,19.80
2018-09-06T04:31:02.401Z,19.73
2018-09-06T04:33:30.660Z,16.53
2018-09-06T04:35:58.909Z,19.00
2018-09-06T04:38:27.160Z,19.63
2018-09-06T04:40:55.428Z,20.33
2018-09-06T04:43:23.691Z,24.70
2018-09-06T04:45:51.974Z,22.40
2018-09-06T04:48:20.449Z,21.27
2018-09-06T04:50:48.704Z,22.40
2018-09-06T04:53:17.012Z,22.40
2018-09-06T04:55:46.009Z,18.53
2018-09-06T04:58:14.277Z,19.13
2018-09-06T05:00:42.501Z,18.03
2018-09-06T05:03:10.737Z,21.37
2018-09-06T05:05:39.041Z,17.23
2018-09-06T05:08:07.265Z,15.57
2018-09-06T05:10:35.565Z,21.13
2018-09-06T05:13:03.812Z,18.57
2018-09-06T05:15:32.108Z,20.40
2018-09-06T05:18:00.348Z,21.57
2018-09-06T05:20:28.612Z,23.17
2018-09-06T05:22:56.833Z,23.13
2018-09-06T05:25:25.069Z,20.90
2018-09-06T05:27:53.414Z,22.23
2018-09-06T05:30:21.660Z,17.50
2018-09-06T05:32:49.880Z,19.97
2018-09-06T05:35:18.278Z,23.30
2018-09-06T05:37:46.366Z,25.27
2018-09-06T05:40:14.616Z,19.43
2018-09-06T05:42:42.828Z,19.97
2018-09-06T05:45:11.078Z,18.17
2018-09-06T05:47:39.304Z,22.83
2018-09-06T05:50:08.040Z,20.67
2018-09-06T05:52:36.258Z,22.40
2018-09-06T05:55:04.476Z,25.53
2018-09-06T05:57:32.730Z,26.43
2018-09-06T06:00:00.969Z,22.77
2018-09-06T06:02:29.227Z,23.43
2018-09-06T06:04:57.446Z,34.70
2018-09-06T06:07:36.368Z,28.30
2018-09-06T06:10:04.633Z,31.50
2018-09-06T06:12:32.869Z,26.93
2018-09-06T06:15:01.208Z,30.17
2018-09-06T06:17:29.596Z,22.93
2018-09-06T06:19:57.904Z,29.90
2018-09-06T06:22:26.089Z,23.63
2018-09-06T06:24:54.316Z,29.93
2018-09-06T06:27:22.629Z,29.23
2018-09-06T06:29:50.896Z,26.50
2018-09-06T06:32:19.237Z,25.30
2018-09-06T06:34:47.437Z,31.63
2018-09-06T06:37:15.696Z,25.70
2018-09-06T06:39:43.967Z,25.23
2018-09-06T06:42:12.198Z,30.73
2018-09-06T06:44:40.428Z,23.23
2018-09-06T06:47:08.697Z,29.30
2018-09-06T06:49:36.981Z,26.03
2018-09-06T06:52:05.216Z,26.13
2018-09-06T06:54:34.136Z,23.57
2018-09-06T06:57:02.432Z,24.07
2018-09-06T06:59:30.680Z,27.43
2018-09-06T07:01:58.893Z,25.33
2018-09-06T07:04:27.291Z,26.83
2018-09-06T07:06:55.546Z,27.17
2018-09-06T07:09:25.691Z,27.50
2018-09-06T07:11:54.609Z,32.33
2018-09-06T07:14:23.267Z,25.37
2018-09-06T07:16:51.497Z,27.63
2018-09-06T07:19:19.750Z,26.90
2018-09-06T07:21:47.965Z,29.47
2018-09-06T07:24:16.333Z,31.13
2018-09-06T07:26:44.777Z,29.37
2018-09-06T07:29:13.005Z,31.10
2018-09-06T07:31:41.260Z,33.87
2018-09-06T07:34:09.507Z,28.60
2018-09-06T07:36:37.720Z,36.93
2018-09-06T07:39:08.022Z,35.97
2018-09-06T07:41:36.400Z,30.83
2018-09-06T07:44:04.729Z,33.37
2018-09-06T07:46:33.469Z,41.00
2018-09-06T07:49:01.802Z,34.63
2018-09-06T07:51:30.083Z,34.60
2018-09-06T07:53:58.669Z,37.60
2018-09-06T07:56:26.976Z,37.60
2018-09-06T07:58:55.351Z,37.50
2018-09-06T08:01:23.860Z,36.67
2018-09-06T08:03:52.061Z,34.00
2018-09-06T08:06:20.289Z,37.70
2018-09-06T08:08:48.520Z,34.53
2018-09-06T08:11:16.852Z,35.57
2018-09-06T08:13:45.109Z,34.43
2018-09-06T08:16:13.344Z,36.10
2018-09-06T08:18:41.579Z,35.23
2018-09-06T08:21:09.836Z,38.33
2018-09-06T08:23:38.065Z,42.87
2018-09-06T08:26:06.500Z,35.80
2018-09-06T08:28:34.709Z,36.60
2018-09-06T08:31:04.002Z,39.43
2018-09-06T08:33:32.188Z,37.83
2018-09-06T08:36:00.443Z,37.47
2018-09-06T08:38:28.740Z,40.53
2018-09-06T08:40:56.945Z,40.10
2018-09-06T08:43:25.182Z,37.90
2018-09-06T08:45:53.406Z,36.80
2018-09-06T08:48:21.686Z,42.80
2018-09-06T08:50:50.026Z,39.40
2018-09-06T08:53:18.281Z,36.80
2018-09-06T08:55:46.637Z,34.83
2018-09-06T08:58:14.856Z,36.13
2018-09-06T09:00:47.310Z,35.80
2018-09-06T09:03:15.773Z,40.70
2018-09-06T09:05:44.207Z,36.97
2018-09-06T09:08:12.535Z,36.63
2018-09-06T09:10:40.829Z,35.43
2018-09-06T09:13:09.360Z,37.67
2018-09-06T09:15:37.612Z,34.37
2018-09-06T09:18:05.961Z,36.73
2018-09-06T09:20:34.282Z,32.27
2018-09-06T09:23:02.608Z,33.23
2018-09-06T09:25:30.981Z,35.60
2018-09-06T09:27:59.142Z,34.80
2018-09-06T09:30:27.455Z,36.97
2018-09-06T09:32:55.662Z,33.03
2018-09-06T09:35:23.908Z,34.33
2018-09-06T09:37:52.331Z,30.83
2018-09-06T09:40:20.574Z,39.33
2018-09-06T09:42:48.795Z,50.23
2018-09-06T09:45:17.025Z,34.03
2018-09-06T09:47:45.244Z,33.83
2018-09-06T09:52:42.713Z,42.83
2018-09-06T09:55:10.952Z,31.87
2018-09-06T09:57:39.213Z,38.17
2018-09-06T10:00:12.465Z,31.33
2018-09-06T10:02:46.012Z,33.47
2018-09-06T10:18:10.356Z,23.10
2018-09-06T10:20:38.885Z,21.20
2018-09-06T10:23:07.141Z,19.53
2018-09-06T10:25:35.468Z,22.70
2018-09-06T10:28:03.796Z,24.50
2018-09-06T10:30:32.052Z,20.80
2018-09-06T10:33:00.291Z,20.57
2018-09-06T10:35:28.672Z,19.03
2018-09-06T10:37:58.092Z,22.27
2018-09-06T10:40:26.446Z,24.67
2018-09-06T10:42:54.636Z,18.80
2018-09-06T10:45:22.888Z,16.27
2018-09-06T10:47:51.153Z,16.57
2018-09-06T10:50:19.432Z,18.73
2018-09-06T10:52:47.702Z,17.50
2018-09-06T10:55:15.944Z,18.83
2018-09-06T10:57:44.180Z,18.67
2018-09-06T11:00:12.453Z,21.27
2018-09-06T11:02:40.689Z,15.20
2018-09-06T11:05:08.934Z,16.30
2018-09-06T11:07:37.184Z,18.37
2018-09-06T11:10:05.657Z,16.77
2018-09-06T11:12:33.865Z,17.47
2018-09-06T11:15:02.491Z,28.67
2018-09-06T11:17:30.676Z,22.03
2018-09-06T11:19:58.928Z,16.50
2018-09-06T11:22:27.718Z,16.93
2018-09-06T11:24:55.883Z,20.43
2018-09-06T11:27:24.133Z,15.20
2018-09-06T11:29:52.372Z,16.77
2018-09-06T11:32:21.640Z,18.90
2018-09-06T11:34:51.336Z,15.33
2018-09-06T11:37:19.617Z,19.93
2018-09-06T11:39:47.876Z,16.73
2018-09-06T11:42:16.128Z,17.90
2018-09-06T11:44:44.324Z,15.07
2018-09-06T11:47:12.600Z,13.37
2018-09-06T11:49:40.858Z,16.83
2018-09-06T11:52:10.217Z,18.77
2018-09-06T11:54:38.469Z,15.20
2018-09-06T11:57:06.732Z,17.90
2018-09-06T11:59:35.255Z,16.80
2018-09-06T12:02:04.270Z,15.10
2018-09-06T12:04:32.630Z,17.13
2018-09-06T12:07:01.058Z,18.87
2018-09-06T12:09:29.361Z,14.57
2018-09-06T12:11:57.716Z,19.47
2018-09-06T12:14:25.971Z,17.60
2018-09-06T12:16:54.181Z,20.33
2018-09-06T12:19:22.642Z,18.07
2018-09-06T12:21:50.948Z,15.97
2018-09-06T12:24:19.206Z,15.67
2018-09-06T12:26:47.428Z,13.47
2018-09-06T12:29:15.728Z,14.87
2018-09-06T12:31:43.967Z,15.73
2018-09-06T12:34:15.556Z,16.20
2018-09-06T12:36:43.801Z,20.40
2018-09-06T12:39:15.660Z,25.73
2018-09-06T12:41:43.945Z,23.33
2018-09-06T12:46:45.976Z,27.70
2018-09-06T12:49:14.221Z,32.90
2018-09-06T12:51:42.480Z,38.23
2018-09-06T12:54:10.688Z,35.07
2018-09-06T12:56:38.969Z,30.80
2018-09-06T12:59:07.164Z,22.93
2018-09-06T13:01:35.860Z,24.60
2018-09-06T13:04:04.152Z,19.70
2018-09-06T13:06:32.476Z,26.03
2018-09-06T13:09:00.689Z,25.13
2018-09-06T13:11:29.138Z,21.63
2018-09-06T13:13:57.373Z,20.63
2018-09-06T13:16:25.653Z,28.33
2018-09-06T13:18:53.947Z,20.30
2018-09-06T13:21:22.200Z,17.17
2018-09-06T13:23:50.453Z,16.37
2018-09-06T13:26:18.729Z,17.53
2018-09-06T13:28:46.935Z,14.40
2018-09-06T13:31:15.188Z,15.63
2018-09-06T13:33:43.484Z,13.47
2018-09-06T13:36:11.720Z,13.77
2018-09-06T13:38:40.066Z,14.97
2018-09-06T13:41:08.290Z,13.57
2018-09-06T13:43:36.576Z,14.70
2018-09-06T13:46:04.871Z,17.47
2018-09-06T13:48:33.101Z,16.90
2018-09-06T13:51:01.337Z,20.40
2018-09-06T13:53:29.600Z,15.73
2018-09-06T13:55:57.824Z,12.93
2018-09-06T13:58:26.201Z,16.63
2018-09-06T14:00:54.364Z,16.37
2018-09-06T14:03:22.560Z,15.57
2018-09-06T14:05:50.826Z,15.20
2018-09-06T14:08:19.032Z,13.23
2018-09-06T14:13:21.318Z,13.17
2018-09-06T14:15:49.572Z,9.93
2018-09-06T14:18:17.857Z,9.50
2018-09-06T14:20:46.119Z,12.43
2018-09-06T14:23:15.372Z,11.53
2018-09-06T14:25:43.612Z,9.60
2018-09-06T14:28:11.828Z,8.37
2018-09-06T14:30:40.080Z,9.97
2018-09-06T14:33:08.345Z,13.87
2018-09-06T14:35:36.584Z,8.67
2018-09-06T14:38:04.870Z,11.50
2018-09-06T14:40:33.236Z,7.67
2018-09-06T14:43:01.465Z,9.27
2018-09-06T14:45:29.796Z,9.50
2018-09-06T14:47:58.822Z,7.73
2018-09-06T14:50:27.087Z,9.17
2018-09-06T14:52:55.344Z,8.67
2018-09-06T14:55:23.748Z,8.93
2018-09-06T14:57:52.077Z,9.87
2018-09-06T15:00:20.413Z,9.23
2018-09-06T15:02:48.633Z,11.30
2018-09-06T15:05:16.857Z,9.93
2018-09-06T15:07:45.075Z,11.37
2018-09-06T15:10:13.286Z,8.90
2018-09-06T15:12:41.560Z,14.07
2018-09-06T15:15:10.446Z,9.73
2018-09-06T15:17:38.667Z,14.97
2018-09-06T15:20:06.953Z,18.93
2018-09-06T15:22:35.160Z,14.50
2018-09-06T15:25:03.424Z,12.07
2018-09-06T15:27:32.501Z,10.40
2018-09-06T15:30:00.729Z,11.60
2018-09-06T15:32:28.972Z,12.20
2018-09-06T15:34:57.185Z,18.03
2018-09-06T15:37:25.416Z,11.43
2018-09-06T15:39:53.651Z,16.03
2018-09-06T15:42:21.897Z,12.17
2018-09-06T15:44:50.119Z,11.70
2018-09-06T15:47:18.411Z,12.03
2018-09-06T15:49:46.650Z,12.07
2018-09-06T15:52:14.860Z,24.43
2018-09-06T15:54:43.232Z,13.00
2018-09-06T15:57:11.452Z,13.30
2018-09-06T15:59:39.763Z,17.07
2018-09-06T16:02:07.998Z,15.87
2018-09-06T16:04:36.241Z,15.50
2018-09-06T16:07:04.438Z,17.60
2018-09-06T16:12:06.544Z,15.60
2018-09-06T16:14:35.952Z,16.20
2018-09-06T16:17:04.239Z,19.67
2018-09-06T16:19:32.476Z,20.63
2018-09-06T16:22:00.689Z,15.67
2018-09-06T16:24:29.000Z,18.40
2018-09-06T16:26:57.168Z,13.50
2018-09-06T16:29:25.435Z,13.77
2018-09-06T16:31:53.653Z,18.63
2018-09-06T16:34:21.968Z,18.03
2018-09-06T16:36:50.177Z,15.97
2018-09-06T16:41:52.841Z,12.43
2018-09-06T16:44:21.076Z,20.87
2018-09-06T16:46:49.316Z,15.93
2018-09-06T16:49:17.538Z,14.30
2018-09-06T16:51:45.826Z,13.97
2018-09-06T16:54:14.041Z,16.10
2018-09-06T16:56:42.313Z,15.60
2018-09-06T16:59:10.520Z,13.30
2018-09-06T17:04:12.364Z,13.17
2018-09-06T17:06:40.708Z,17.70
2018-09-06T17:09:09.424Z,13.47
2018-09-06T17:14:11.728Z,13.17
2018-09-06T17:16:39.942Z,14.67
2018-09-06T17:19:08.174Z,9.13
2018-09-06T17:21:36.391Z,14.43
2018-09-06T17:24:04.623Z,10.63
2018-09-06T17:26:32.844Z,14.70
2018-09-06T17:29:01.074Z,12.67
2018-09-06T17:31:29.272Z,10.07
2018-09-06T17:33:58.195Z,12.63
2018-09-06T17:36:26.367Z,9.07
2018-09-06T17:38:54.702Z,11.60
2018-09-06T17:41:22.887Z,12.03
2018-09-06T17:43:51.080Z,12.03
2018-09-06T17:46:20.048Z,13.53
2018-09-06T17:48:48.257Z,13.23
2018-09-06T17:51:16.512Z,14.47
2018-09-06T17:53:44.732Z,11.20
2018-09-06T17:56:12.956Z,13.93
2018-09-06T17:58:41.160Z,11.70
2018-09-06T18:03:53.174Z,15.23
2018-09-06T18:06:21.417Z,11.60
2018-09-06T18:08:49.637Z,11.77
2018-09-06T18:11:17.901Z,13.33
2018-09-06T18:13:46.112Z,13.70
2018-09-06T18:16:14.331Z,13.27
2018-09-06T18:18:42.592Z,13.77
2018-09-06T18:21:10.808Z,14.00
2018-09-06T18:23:39.185Z,13.43
2018-09-06T18:26:07.324Z,12.53
2018-09-06T18:28:35.552Z,12.60
2018-09-06T18:31:04.056Z,12.97
2018-09-06T18:33:34.892Z,13.77
2018-09-06T18:36:03.113Z,15.37
2018-09-06T18:38:31.344Z,11.57
2018-09-06T18:43:33.659Z,11.77
2018-09-06T18:46:01.909Z,11.37
2018-09-06T18:48:30.120Z,8.97
2018-09-06T18:50:58.388Z,10.13
2018-09-06T18:53:26.692Z,8.37
2018-09-06T18:55:54.940Z,9.50
2018-09-06T18:58:23.207Z,10.43
2018-09-06T19:00:51.439Z,8.97
2018-09-06T19:03:19.648Z,8.97
2018-09-06T19:05:48.119Z,9.03
2018-09-06T19:08:16.347Z,10.43
2018-09-06T19:15:51.976Z,9.07
2018-09-06T19:18:20.253Z,10.00
2018-09-06T19:20:48.476Z,9.07
2018-09-06T19:23:16.704Z,8.67
2018-09-06T19:25:44.948Z,9.87
2018-09-06T19:28:13.896Z,7.67
2018-09-06T19:33:16.317Z,8.07
2018-09-06T19:35:44.896Z,7.93
2018-09-06T19:38:13.545Z,8.07
2018-09-06T19:40:41.921Z,7.77
2018-09-06T19:43:10.244Z,7.67
2018-09-06T19:45:38.537Z,7.47
2018-09-06T19:48:06.999Z,7.83
2018-09-06T19:50:35.440Z,8.10
2018-09-06T19:53:03.696Z,10.17
2018-09-06T19:55:32.199Z,8.27
2018-09-06T19:58:00.516Z,10.63
2018-09-06T20:00:28.777Z,9.17
2018-09-06T20:02:57.004Z,9.40
2018-09-06T20:05:25.764Z,10.50
2018-09-06T20:07:54.050Z,8.23
2018-09-06T20:10:22.244Z,9.90
2018-09-06T20:12:51.316Z,9.70
2018-09-06T20:15:20.089Z,8.73
2018-09-06T20:17:48.552Z,10.20
2018-09-06T20:20:21.293Z,9.00
2018-09-06T20:22:49.524Z,7.97
2018-09-06T20:25:17.768Z,10.00
2018-09-06T20:27:46.016Z,8.30
2018-09-06T20:30:14.305Z,10.67
2018-09-06T20:32:42.526Z,8.87
2018-09-06T20:35:11.013Z,10.93
2018-09-06T20:37:39.232Z,9.20
2018-09-06T20:40:07.440Z,9.30
2018-09-06T20:42:35.678Z,8.20
2018-09-06T20:45:03.884Z,9.40
2018-09-06T20:47:32.104Z,8.83
2018-09-06T20:50:00.325Z,7.37
2018-09-06T20:52:28.748Z,6.97
2018-09-06T20:54:56.968Z,7.80
2018-09-06T20:57:25.300Z,8.47
2018-09-06T20:59:53.590Z,8.37
2018-09-06T21:02:22.880Z,8.30
2018-09-06T21:04:51.536Z,8.43
2018-09-06T21:07:19.737Z,7.30
2018-09-06T21:09:48.021Z,8.40
2018-09-06T21:12:16.248Z,8.53
2018-09-06T21:14:44.547Z,12.67
2018-09-06T21:17:12.751Z,8.30
2018-09-06T21:19:41.057Z,7.10
2018-09-06T21:22:09.273Z,11.37
2018-09-06T21:24:37.553Z,6.97
2018-09-06T21:27:06.018Z,6.73
2018-09-06T21:29:34.296Z,8.10
2018-09-06T21:32:03.212Z,6.30
2018-09-06T21:34:31.437Z,6.10
2018-09-06T21:36:59.656Z,6.63
2018-09-06T21:39:27.880Z,6.37
2018-09-06T21:41:56.091Z,7.03
2018-09-06T21:44:24.297Z,6.90
2018-09-06T21:46:52.578Z,7.97
2018-09-06T21:49:20.815Z,9.30
2018-09-06T21:57:21.052Z,10.10
2018-09-06T21:59:49.295Z,10.07
2018-09-06T22:02:23.064Z,9.23
2018-09-06T22:04:51.274Z,10.23
2018-09-06T22:07:19.493Z,10.97
2018-09-06T22:09:47.824Z,8.93
2018-09-06T22:12:17.503Z,11.33
2018-09-06T22:14:46.956Z,10.20
2018-09-06T22:17:15.587Z,12.00
2018-09-06T22:19:44.140Z,11.63
2018-09-06T22:22:12.388Z,12.10
2018-09-06T22:24:41.036Z,16.07
2018-09-06T22:27:09.297Z,12.73
2018-09-06T22:29:37.688Z,12.70
2018-09-06T22:32:06.412Z,12.43
2018-09-06T22:34:34.664Z,13.50
2018-09-06T22:37:02.912Z,11.57
2018-09-06T22:39:31.152Z,15.30
2018-09-06T22:41:59.888Z,13.73
2018-09-06T22:44:28.129Z,10.53
2018-09-06T22:46:56.385Z,10.77
2018-09-06T22:49:24.748Z,10.40
2018-09-06T22:51:53.012Z,9.60
2018-09-06T22:54:21.419Z,9.47
2018-09-06T22:56:49.825Z,10.27
2018-09-06T22:59:18.100Z,10.20
2018-09-06T23:01:46.345Z,10.73
2018-09-06T23:04:14.597Z,12.47
2018-09-06T23:06:42.877Z,11.77
2018-09-06T23:09:11.136Z,12.80
2018-09-06T23:11:39.558Z,12.30
2018-09-06T23:14:07.813Z,13.63
2018-09-06T23:16:36.074Z,13.13
2018-09-06T23:19:04.486Z,13.60
2018-09-06T23:21:32.724Z,13.80
2018-09-06T23:24:00.944Z,16.90
2018-09-06T23:26:29.208Z,15.00
2018-09-06T23:28:57.465Z,15.83
2018-09-06T23:31:25.673Z,16.03
2018-09-06T23:33:53.924Z,19.47
2018-09-06T23:36:22.163Z,18.00
2018-09-06T23:38:50.424Z,22.93
2018-09-06T23:41:18.639Z,20.37
2018-09-06T23:43:46.896Z,22.20
2018-09-06T23:46:15.136Z,19.70
2018-09-06T23:48:43.387Z,20.33
2018-09-06T23:51:11.601Z,20.03
2018-09-06T23:53:39.852Z,19.03
2018-09-06T23:56:08.084Z,22.60
2018-09-06T23:58:36.349Z,17.60
